createdAt,value
2024-03-11T00:00:19.730Z,97319.00
2024-03-11T00:02:47.204Z,97308.47
2024-03-11T00:05:16.647Z,97325.63
2024-03-11T00:07:46.584Z,97333.56
2024-03-11T00:10:14.341Z,97310.53
2024-03-11T00:12:51.229Z,97332.75
2024-03-11T00:15:22.455Z,97332.03
2024-03-11T00:17:50.564Z,97337.50
2024-03-11T00:20:18.759Z,97348.56
2024-03-11T00:22:46.388Z,97346.91
2024-03-11T00:25:13.940Z,97350.22
2024-03-11T00:27:41.003Z,97356.31
2024-03-11T00:30:12.195Z,97355.38
2024-03-11T00:32:49.061Z,97337.41
2024-03-11T00:35:17.100Z,97346.63
2024-03-11T00:37:45.390Z,97360.06
2024-03-11T00:40:14.133Z,97331.44
2024-03-11T00:42:41.027Z,97370.16
2024-03-11T00:45:12.977Z,97378.22
2024-03-11T00:47:43.268Z,97375.03
2024-03-11T00:50:12.178Z,97383.09
2024-03-11T00:52:39.918Z,97391.44
2024-03-11T00:55:08.900Z,97383.69
2024-03-11T00:57:39.952Z,97391.34
2024-03-11T01:00:15.465Z,97383.81
2024-03-11T01:02:43.400Z,97387.34
2024-03-11T01:05:11.411Z,97386.19
2024-03-11T01:07:45.597Z,97393.19
2024-03-11T01:10:17.885Z,97401.69
2024-03-11T01:12:45.524Z,97402.72
2024-03-11T01:15:13.029Z,97394.03
2024-03-11T01:17:40.743Z,97379.25
2024-03-11T01:20:12.568Z,97397.78
2024-03-11T01:22:41.521Z,97394.66
2024-03-11T01:25:10.415Z,97396.09
2024-03-11T01:27:37.859Z,97411.28
2024-03-11T01:30:05.529Z,97403.75
2024-03-11T01:32:32.671Z,97411.41
2024-03-11T01:35:01.296Z,97395.28
2024-03-11T01:37:28.415Z,97415.84
2024-03-11T01:39:56.680Z,97422.66
2024-03-11T01:42:24.455Z,97425.47
2024-03-11T01:44:53.198Z,97428.22
2024-03-11T01:47:26.241Z,97428.97
2024-03-11T01:49:55.912Z,97424.72
2024-03-11T01:52:29.217Z,97426.50
2024-03-11T01:54:57.410Z,97425.63
2024-03-11T01:57:28.420Z,97419.75
2024-03-11T01:59:55.816Z,97423.19
2024-03-11T02:02:23.231Z,97425.75
2024-03-11T02:04:51.093Z,97419.66
2024-03-11T02:07:19.738Z,97405.91
2024-03-11T02:09:46.612Z,97425.13
2024-03-11T02:12:15.439Z,97412.50
2024-03-11T02:14:42.533Z,97397.66
2024-03-11T02:17:10.083Z,97433.16
2024-03-11T02:19:38.638Z,97434.66
2024-03-11T02:22:05.621Z,97425.19
2024-03-11T02:24:32.568Z,97435.13
2024-03-11T02:26:59.595Z,97437.38
2024-03-11T02:29:26.584Z,97443.63
2024-03-11T02:31:55.876Z,97443.28
2024-03-11T02:34:22.868Z,97430.06
2024-03-11T02:36:55.120Z,97450.88
2024-03-11T02:39:22.410Z,97445.13
2024-03-11T02:41:52.593Z,97440.88
2024-03-11T02:44:19.644Z,97446.88
2024-03-11T02:46:46.942Z,97456.25
2024-03-11T02:49:14.553Z,97462.25
2024-03-11T02:51:43.459Z,97465.03
2024-03-11T02:54:10.777Z,97440.03
2024-03-11T02:56:38.461Z,97459.00
2024-03-11T02:59:05.871Z,97466.06
2024-03-11T03:01:32.956Z,97465.63
2024-03-11T03:04:00.243Z,97450.91
2024-03-11T03:06:28.905Z,97475.09
2024-03-11T03:08:56.273Z,97476.88
2024-03-11T03:11:23.447Z,97473.66
2024-03-11T03:13:51.505Z,97476.94
2024-03-11T03:16:18.553Z,97475.72
2024-03-11T03:18:45.440Z,97443.91
2024-03-11T03:21:12.296Z,97422.69
2024-03-11T03:23:39.266Z,97465.09
2024-03-11T03:26:06.587Z,97484.41
2024-03-11T03:28:33.598Z,97481.81
2024-03-11T03:31:00.564Z,97478.25
2024-03-11T03:33:29.164Z,97438.53
2024-03-11T03:35:56.866Z,97496.63
2024-03-11T03:38:24.010Z,97495.56
2024-03-11T03:40:51.302Z,97492.28
2024-03-11T03:43:18.188Z,97489.72
2024-03-11T03:45:45.941Z,97503.50
2024-03-11T03:48:13.296Z,97490.28
2024-03-11T03:50:40.738Z,97473.72
2024-03-11T03:53:10.069Z,97505.09
2024-03-11T03:55:38.875Z,97498.75
2024-03-11T03:58:06.426Z,97502.88
2024-03-11T04:00:36.433Z,97514.03
2024-03-11T04:03:06.527Z,97519.00
2024-03-11T04:05:33.916Z,97517.34
2024-03-11T04:08:01.631Z,97510.63
2024-03-11T04:10:29.738Z,97509.06
2024-03-11T04:12:59.397Z,97508.34
2024-03-11T04:15:26.721Z,97492.06
2024-03-11T04:17:55.738Z,97511.38
2024-03-11T04:20:28.809Z,97513.88
2024-03-11T04:22:57.212Z,97515.53
2024-03-11T04:25:28.292Z,97516.63
2024-03-11T04:27:57.029Z,97514.78
2024-03-11T04:30:31.741Z,97520.13
2024-03-11T04:33:00.039Z,97509.78
2024-03-11T04:35:32.736Z,97531.63
2024-03-11T04:38:05.479Z,97528.38
2024-03-11T04:40:39.562Z,97534.66
2024-03-11T04:43:06.946Z,97536.47
2024-03-11T04:45:36.738Z,97529.66
2024-03-11T04:48:06.344Z,97529.00
2024-03-11T04:50:39.485Z,97514.56
2024-03-11T04:53:08.984Z,97539.69
2024-03-11T04:55:38.054Z,97542.34
2024-03-11T04:58:05.508Z,97540.03
2024-03-11T05:00:33.759Z,97508.56
2024-03-11T05:03:04.359Z,97545.38
2024-03-11T05:05:34.299Z,97538.25
2024-03-11T05:08:01.719Z,97548.56
2024-03-11T05:10:28.584Z,97548.66
2024-03-11T05:12:55.491Z,97551.41
2024-03-11T05:15:23.016Z,97559.06
2024-03-11T05:17:50.946Z,97553.91
2024-03-11T05:20:20.565Z,97552.25
2024-03-11T05:22:51.437Z,97558.50
2024-03-11T05:25:19.224Z,97561.81
2024-03-11T05:27:52.704Z,97573.19
2024-03-11T05:30:20.360Z,97542.63
2024-03-11T05:32:48.483Z,97577.78
2024-03-11T05:35:16.397Z,97576.06
2024-03-11T05:37:44.622Z,97591.03
2024-03-11T05:40:15.196Z,97587.88
2024-03-11T05:42:42.928Z,97592.09
2024-03-11T05:45:11.691Z,97604.22
2024-03-11T05:47:39.220Z,97594.38
2024-03-11T05:50:07.069Z,97609.72
2024-03-11T05:52:34.470Z,97603.09
2024-03-11T05:55:04.763Z,97608.16
2024-03-11T05:57:37.488Z,97603.84
2024-03-11T06:00:10.693Z,97594.22
2024-03-11T06:02:38.683Z,97622.78
2024-03-11T06:05:07.016Z,97629.00
2024-03-11T06:07:34.862Z,97632.34
2024-03-11T06:10:02.547Z,97611.00
2024-03-11T06:12:30.343Z,97646.00
2024-03-11T06:14:57.773Z,97650.00
2024-03-11T06:17:24.860Z,97597.56
2024-03-11T06:19:52.831Z,97634.91
2024-03-11T06:22:20.229Z,97637.88
2024-03-11T06:24:47.280Z,97665.78
2024-03-11T06:27:15.876Z,97672.50
2024-03-11T06:29:43.822Z,97667.25
2024-03-11T06:32:12.060Z,97667.94
2024-03-11T06:34:39.074Z,97639.03
2024-03-11T06:37:06.216Z,97674.00
2024-03-11T06:39:34.295Z,97680.06
2024-03-11T06:42:02.778Z,97686.97
2024-03-11T06:44:38.595Z,97680.88
2024-03-11T06:47:12.912Z,97686.78
2024-03-11T06:49:40.395Z,97691.19
2024-03-11T06:52:08.748Z,97687.53
2024-03-11T06:54:37.725Z,97688.88
2024-03-11T06:57:07.261Z,97692.34
2024-03-11T06:59:35.068Z,97699.00
2024-03-11T07:02:02.555Z,97683.22
2024-03-11T07:04:29.493Z,97704.06
2024-03-11T07:06:57.673Z,97702.50
2024-03-11T07:09:26.825Z,97703.97
2024-03-11T07:11:53.809Z,97705.78
2024-03-11T07:14:21.258Z,97711.28
2024-03-11T07:16:48.164Z,97709.38
2024-03-11T07:19:15.154Z,97710.44
2024-03-11T07:21:42.100Z,97698.66
2024-03-11T07:24:10.607Z,97668.59
2024-03-11T07:26:40.006Z,97708.13
2024-03-11T07:29:07.397Z,97708.59
2024-03-11T07:31:34.581Z,97705.94
2024-03-11T07:34:01.410Z,97716.81
2024-03-11T07:36:28.356Z,97719.22
2024-03-11T07:38:55.998Z,97725.88
2024-03-11T07:41:26.074Z,97727.34
2024-03-11T07:43:53.563Z,97737.66
2024-03-11T07:46:20.978Z,97739.06
2024-03-11T07:48:47.907Z,97743.97
2024-03-11T07:51:15.051Z,97740.47
2024-03-11T07:53:42.106Z,97753.03
2024-03-11T07:56:10.520Z,97758.94
2024-03-11T07:58:37.848Z,97758.78
2024-03-11T08:01:05.403Z,97761.91
2024-03-11T08:03:32.481Z,97758.41
2024-03-11T08:06:00.085Z,97741.16
2024-03-11T08:08:27.925Z,97760.63
2024-03-11T08:10:55.424Z,97768.22
2024-03-11T08:13:22.805Z,97768.03
2024-03-11T08:15:50.517Z,97769.69
2024-03-11T08:18:17.986Z,97772.81
2024-03-11T08:20:45.228Z,97764.69
2024-03-11T08:23:12.366Z,97789.78
2024-03-11T08:25:45.935Z,97783.63
2024-03-11T08:28:16.189Z,97782.63
2024-03-11T08:30:44.922Z,97784.13
2024-03-11T08:33:13.872Z,97791.66
2024-03-11T08:35:42.974Z,97790.03
2024-03-11T08:38:09.964Z,97786.31
2024-03-11T08:40:39.503Z,97783.59
2024-03-11T08:43:06.691Z,97788.38
2024-03-11T08:45:34.358Z,97790.88
2024-03-11T08:48:01.551Z,97776.56
2024-03-11T08:50:28.834Z,97792.44
2024-03-11T08:52:55.935Z,97783.78
2024-03-11T08:55:22.965Z,97778.72
2024-03-11T08:57:50.869Z,97780.84
2024-03-11T09:00:19.389Z,97784.16
2024-03-11T09:02:47.101Z,97789.16
2024-03-11T09:05:18.406Z,97792.81
2024-03-11T09:07:47.115Z,97782.31
2024-03-11T09:10:18.188Z,97792.84
2024-03-11T09:12:46.602Z,97792.56
2024-03-11T09:15:17.440Z,97787.97
2024-03-11T09:17:49.683Z,97793.56
2024-03-11T09:20:17.685Z,97791.84
2024-03-11T09:22:53.302Z,97807.78
2024-03-11T09:25:27.589Z,97799.31
2024-03-11T09:28:03.908Z,97804.38
2024-03-11T09:30:34.758Z,97801.16
2024-03-11T09:33:03.388Z,97791.00
2024-03-11T09:35:31.142Z,97797.63
2024-03-11T09:37:59.530Z,97807.00
2024-03-11T09:40:30.899Z,97803.84
2024-03-11T09:43:02.829Z,97786.31
2024-03-11T09:45:32.153Z,97798.94
2024-03-11T09:48:02.150Z,97817.22
2024-03-11T09:50:32.404Z,97813.97
2024-03-11T09:53:07.856Z,97812.84
2024-03-11T09:55:35.661Z,97810.78
2024-03-11T09:58:08.828Z,97816.66
2024-03-11T10:00:43.487Z,97812.59
2024-03-11T10:03:14.864Z,97800.88
2024-03-11T10:05:46.078Z,97816.13
2024-03-11T10:08:19.234Z,97816.56
2024-03-11T10:11:12.942Z,97813.56
2024-03-11T10:13:40.493Z,97819.53
2024-03-11T10:16:19.526Z,97815.59
2024-03-11T10:19:17.385Z,97815.78
2024-03-11T10:21:45.749Z,97825.56
2024-03-11T10:24:16.210Z,97829.91
2024-03-11T10:26:44.036Z,97821.84
2024-03-11T10:29:17.825Z,97830.53
2024-03-11T10:31:46.970Z,97825.13
2024-03-11T10:34:22.832Z,97832.19
2024-03-11T10:37:03.153Z,97827.63
2024-03-11T10:39:42.714Z,97829.94
2024-03-11T10:42:14.085Z,97823.69
2024-03-11T10:44:41.712Z,97819.03
2024-03-11T10:47:17.060Z,97814.16
2024-03-11T10:49:51.332Z,97822.66
2024-03-11T10:52:26.601Z,97818.09
2024-03-11T10:55:07.781Z,97813.50
2024-03-11T10:57:45.888Z,97814.53
2024-03-11T11:00:17.693Z,97811.13
2024-03-11T11:02:47.118Z,97814.53
2024-03-11T11:05:25.184Z,97810.38
2024-03-11T11:07:56.963Z,97804.09
2024-03-11T11:10:31.604Z,97808.25
2024-03-11T11:13:02.677Z,97802.78
2024-03-11T11:15:30.967Z,97812.19
2024-03-11T11:17:59.110Z,97744.22
2024-03-11T11:20:39.068Z,97820.16
2024-03-11T11:23:06.549Z,97800.19
2024-03-11T11:25:43.728Z,97808.66
2024-03-11T11:28:25.885Z,97807.50
2024-03-11T11:31:29.579Z,97795.91
2024-03-11T11:34:06.142Z,97801.69
2024-03-11T11:36:33.374Z,97804.34
2024-03-11T11:39:15.874Z,97795.53
2024-03-11T11:41:54.620Z,97792.09
2024-03-11T11:44:30.274Z,97797.50
2024-03-11T11:47:16.871Z,97789.94
2024-03-11T11:49:48.475Z,97792.53
2024-03-11T11:52:15.914Z,97797.63
2024-03-11T11:54:44.262Z,97792.13
2024-03-11T11:57:20.371Z,97798.50
2024-03-11T11:59:56.758Z,97793.47
2024-03-11T12:02:30.901Z,97797.72
2024-03-11T12:05:04.153Z,97799.22
2024-03-11T12:07:39.154Z,97788.75
2024-03-11T12:10:08.799Z,97799.00
2024-03-11T12:12:49.600Z,97798.72
2024-03-11T12:15:26.438Z,97803.13
2024-03-11T12:17:59.093Z,97796.53
2024-03-11T12:20:27.279Z,97796.53
2024-03-11T12:22:56.468Z,97796.97
2024-03-11T12:25:24.642Z,97787.84
2024-03-11T12:28:05.161Z,97798.84
2024-03-11T12:30:39.436Z,97784.66
2024-03-11T12:33:10.147Z,97797.44
2024-03-11T12:35:44.766Z,97801.31
2024-03-11T12:38:14.941Z,97804.88
2024-03-11T12:40:48.561Z,97794.91
2024-03-11T12:43:24.978Z,97782.78
2024-03-11T12:46:02.215Z,97791.78
2024-03-11T12:48:30.956Z,97819.19
2024-03-11T12:51:00.067Z,97825.56
2024-03-11T12:53:32.729Z,97803.38
2024-03-11T12:56:05.715Z,97825.34
2024-03-11T12:58:40.594Z,97824.47
2024-03-11T13:01:17.986Z,97826.00
2024-03-11T13:03:47.744Z,97831.22
2024-03-11T13:06:21.240Z,97831.22
2024-03-11T13:08:50.981Z,97829.06
2024-03-11T13:11:18.445Z,97828.97
2024-03-11T13:13:45.822Z,97824.81
2024-03-11T13:16:18.579Z,97832.28
2024-03-11T13:18:49.911Z,97844.19
2024-03-11T13:21:21.611Z,97834.78
2024-03-11T13:23:49.398Z,97840.94
2024-03-11T13:26:17.511Z,97842.81
2024-03-11T13:28:44.709Z,97845.53
2024-03-11T13:31:13.987Z,97854.22
2024-03-11T13:33:43.406Z,97856.94
2024-03-11T13:36:10.985Z,97845.75
2024-03-11T13:38:38.321Z,97855.78
2024-03-11T13:41:06.792Z,97854.16
2024-03-11T13:43:34.303Z,97838.63
2024-03-11T13:46:02.085Z,97854.22
2024-03-11T13:48:29.661Z,97865.22
2024-03-11T13:50:58.317Z,97861.47
2024-03-11T13:53:25.878Z,97864.78
2024-03-11T13:55:53.138Z,97865.22
2024-03-11T13:58:21.001Z,97869.00
2024-03-11T14:00:50.822Z,97846.53
2024-03-11T14:03:21.187Z,97864.63
2024-03-11T14:05:48.364Z,97858.63
2024-03-11T14:08:15.375Z,97869.00
2024-03-11T14:10:44.382Z,97873.38
2024-03-11T14:13:13.121Z,97866.91
2024-03-11T14:15:40.295Z,97873.13
2024-03-11T14:18:07.450Z,97871.75
2024-03-11T14:20:34.552Z,97873.75
2024-03-11T14:23:01.939Z,97882.47
2024-03-11T14:25:34.045Z,97874.50
2024-03-11T14:28:01.228Z,97894.97
2024-03-11T14:30:35.403Z,97894.38
2024-03-11T14:33:07.843Z,97897.19
2024-03-11T14:35:34.967Z,97896.78
2024-03-11T14:38:02.082Z,97900.22
2024-03-11T14:40:33.629Z,97897.94
2024-03-11T14:43:02.476Z,97897.72
2024-03-11T14:45:34.802Z,97906.25
2024-03-11T14:48:03.007Z,97880.31
2024-03-11T14:50:30.992Z,97910.56
2024-03-11T14:53:01.501Z,97901.38
2024-03-11T14:55:37.688Z,97903.41
2024-03-11T14:58:09.085Z,97913.56
2024-03-11T15:00:37.535Z,97913.31
2024-03-11T15:03:07.641Z,97916.13
2024-03-11T15:05:40.984Z,97918.63
2024-03-11T15:08:09.058Z,97918.63
2024-03-11T15:10:36.292Z,97927.56
2024-03-11T15:13:05.599Z,97927.78
2024-03-11T15:15:33.400Z,97926.84
2024-03-11T15:18:01.662Z,97926.94
2024-03-11T15:20:30.092Z,97935.06
2024-03-11T15:22:57.953Z,97938.41
2024-03-11T15:25:26.271Z,97945.47
2024-03-11T15:27:54.488Z,97926.19
2024-03-11T15:30:28.010Z,97951.09
2024-03-11T15:32:55.973Z,97954.31
2024-03-11T15:35:23.418Z,97952.03
2024-03-11T15:37:50.262Z,97961.25
2024-03-11T15:40:17.525Z,97961.25
2024-03-11T15:42:45.247Z,97957.22
2024-03-11T15:45:15.126Z,97969.97
2024-03-11T15:47:42.806Z,97975.25
2024-03-11T15:50:20.368Z,97971.06
2024-03-11T15:52:50.960Z,97967.13
2024-03-11T15:55:18.479Z,97973.25
2024-03-11T15:57:45.548Z,97981.41
2024-03-11T16:00:20.053Z,97978.56
2024-03-11T16:02:48.037Z,97982.09
2024-03-11T16:05:18.997Z,97989.19
2024-03-11T16:07:47.926Z,97984.19
2024-03-11T16:10:19.375Z,97985.25
2024-03-11T16:12:53.013Z,97986.38
2024-03-11T16:15:23.654Z,97989.94
2024-03-11T16:17:52.979Z,97994.28
2024-03-11T16:20:20.667Z,97997.84
2024-03-11T16:22:48.350Z,97998.97
2024-03-11T16:25:17.476Z,97995.78
2024-03-11T16:27:47.772Z,98001.91
2024-03-11T16:30:16.423Z,97992.28
2024-03-11T16:32:46.721Z,98004.00
2024-03-11T16:35:14.433Z,97999.84
2024-03-11T16:37:42.644Z,98004.31
2024-03-11T16:40:15.428Z,98005.47
2024-03-11T16:42:43.172Z,97998.81
2024-03-11T16:45:12.455Z,98004.84
2024-03-11T16:47:41.504Z,98002.25
2024-03-11T16:50:13.073Z,98006.81
2024-03-11T16:52:40.618Z,98012.03
2024-03-11T16:55:15.558Z,98014.09
2024-03-11T16:57:46.434Z,97999.56
2024-03-11T17:00:21.829Z,98023.25
2024-03-11T17:02:54.340Z,98026.13
2024-03-11T17:05:24.575Z,98023.84
2024-03-11T17:07:55.822Z,98026.78
2024-03-11T17:10:33.353Z,98023.44
2024-03-11T17:13:07.971Z,98031.13
2024-03-11T17:15:36.470Z,98025.19
2024-03-11T17:18:07.809Z,97999.78
2024-03-11T17:20:43.156Z,98042.63
2024-03-11T17:23:17.525Z,98048.16
2024-03-11T17:25:45.936Z,98052.72
2024-03-11T17:28:17.237Z,98051.66
2024-03-11T17:30:52.289Z,98059.88
2024-03-11T17:33:21.699Z,98064.94
2024-03-11T17:35:55.499Z,98073.78
2024-03-11T17:38:23.659Z,98075.69
2024-03-11T17:40:53.797Z,98077.78
2024-03-11T17:43:21.450Z,98080.91
2024-03-11T17:45:50.624Z,98081.66
2024-03-11T17:48:23.387Z,98085.88
2024-03-11T17:50:51.836Z,98089.44
2024-03-11T17:53:19.090Z,98089.50
2024-03-11T17:55:46.299Z,98096.47
2024-03-11T17:58:15.923Z,98099.16
2024-03-11T18:00:43.686Z,98101.03
2024-03-11T18:03:11.365Z,98105.59
2024-03-11T18:05:38.762Z,98114.91
2024-03-11T18:08:08.011Z,98115.28
2024-03-11T18:10:42.007Z,98123.69
2024-03-11T18:13:14.771Z,98116.41
2024-03-11T18:15:42.962Z,98125.66
2024-03-11T18:18:17.290Z,98132.63
2024-03-11T18:20:45.690Z,98125.59
2024-03-11T18:23:14.069Z,98154.16
2024-03-11T18:25:41.817Z,98149.50
2024-03-11T18:28:09.719Z,98154.66
2024-03-11T18:30:37.303Z,98154.41
2024-03-11T18:33:06.538Z,98149.06
2024-03-11T18:35:37.006Z,98164.88
2024-03-11T18:38:06.465Z,98147.59
2024-03-11T18:40:34.622Z,98179.97
2024-03-11T18:43:02.326Z,98184.69
2024-03-11T18:45:30.763Z,98188.38
2024-03-11T18:47:57.892Z,98192.75
2024-03-11T18:50:25.604Z,98193.56
2024-03-11T18:53:00.032Z,98199.34
2024-03-11T18:55:32.433Z,98186.66
2024-03-11T18:58:00.585Z,98195.34
2024-03-11T19:00:29.367Z,98199.97
2024-03-11T19:03:01.361Z,98216.25
2024-03-11T19:05:29.493Z,98205.91
2024-03-11T19:07:57.194Z,98218.84
2024-03-11T19:10:26.921Z,98228.34
2024-03-11T19:12:54.989Z,98231.22
2024-03-11T19:15:25.883Z,98229.72
2024-03-11T19:17:53.497Z,98195.88
2024-03-11T19:20:26.254Z,98236.47
2024-03-11T19:22:54.257Z,98247.81
2024-03-11T19:25:25.544Z,98260.09
2024-03-11T19:27:54.199Z,98268.16
2024-03-11T19:30:23.824Z,98267.41
2024-03-11T19:32:54.342Z,98254.44
2024-03-11T19:35:22.906Z,98258.13
2024-03-11T19:38:15.239Z,98283.47
2024-03-11T19:40:45.141Z,98288.97
2024-03-11T19:43:44.051Z,98258.56
2024-03-11T19:46:32.054Z,98306.88
2024-03-11T19:49:25.271Z,98301.69
2024-03-11T19:52:06.864Z,98307.03
2024-03-11T19:55:11.892Z,98327.88
2024-03-11T19:58:50.866Z,98326.38
2024-03-11T20:01:51.584Z,98329.06
2024-03-11T20:05:11.106Z,98338.72
2024-03-11T20:08:40.204Z,98350.84
2024-03-11T20:11:38.203Z,98360.53
2024-03-11T20:14:45.825Z,98353.75
2024-03-11T20:18:00.912Z,98351.25
2024-03-11T20:20:59.397Z,98360.66
2024-03-11T20:24:15.127Z,98358.09
2024-03-11T20:26:56.654Z,98377.25
2024-03-11T20:29:31.858Z,98377.25
2024-03-11T20:32:03.560Z,98373.81
2024-03-11T20:34:31.145Z,98376.41
2024-03-11T20:36:58.814Z,98378.25
2024-03-11T20:39:25.986Z,98383.56
2024-03-11T20:41:55.361Z,98393.91
2024-03-11T20:44:22.549Z,98397.66
2024-03-11T20:46:49.573Z,98391.72
2024-03-11T20:49:18.062Z,98398.75
2024-03-11T20:51:45.007Z,98403.00
2024-03-11T20:54:11.884Z,98406.59
2024-03-11T20:56:39.243Z,98411.81
2024-03-11T20:59:06.406Z,98408.41
2024-03-11T21:01:34.059Z,98418.09
2024-03-11T21:04:01.281Z,98428.25
2024-03-11T21:06:28.502Z,98427.50
2024-03-11T21:08:55.392Z,98429.31
2024-03-11T21:11:23.159Z,98437.84
2024-03-11T21:13:50.095Z,98432.06
2024-03-11T21:16:19.215Z,98441.34
2024-03-11T21:18:48.272Z,98447.31
2024-03-11T21:21:24.278Z,98433.22
2024-03-11T21:24:07.666Z,98449.31
2024-03-11T21:26:41.015Z,98449.28
2024-03-11T21:29:09.531Z,98449.28
2024-03-11T21:31:37.976Z,98458.84
2024-03-11T21:34:06.612Z,98454.50
2024-03-11T21:36:34.831Z,98452.66
2024-03-11T21:39:01.795Z,98435.06
2024-03-11T21:41:28.644Z,98447.75
2024-03-11T21:43:55.508Z,98453.59
2024-03-11T21:46:25.435Z,98445.06
2024-03-11T21:48:52.880Z,98448.41
2024-03-11T21:51:25.543Z,98435.06
2024-03-11T21:53:53.894Z,98461.44
2024-03-11T21:56:20.777Z,98460.19
2024-03-11T21:58:47.633Z,98464.50
2024-03-11T22:01:15.279Z,98452.84
2024-03-11T22:03:42.896Z,98451.88
2024-03-11T22:06:09.837Z,98464.63
2024-03-11T22:08:38.838Z,98455.97
2024-03-11T22:11:06.975Z,98441.75
2024-03-11T22:13:33.980Z,98459.47
2024-03-11T22:16:01.076Z,98463.88
2024-03-11T22:18:28.008Z,98466.22
2024-03-11T22:20:54.988Z,98474.13
2024-03-11T22:23:22.567Z,98470.00
2024-03-11T22:25:49.563Z,98416.34
2024-03-11T22:28:19.043Z,98460.38
2024-03-11T22:30:45.960Z,98469.97
2024-03-11T22:33:14.086Z,98471.72
2024-03-11T22:35:41.013Z,98460.94
2024-03-11T22:38:08.486Z,98487.28
2024-03-11T22:40:35.382Z,98488.06
2024-03-11T22:43:02.355Z,98466.03
2024-03-11T22:45:30.220Z,98485.69
2024-03-11T22:47:58.274Z,98491.53
2024-03-11T22:50:25.228Z,98474.50
2024-03-11T22:52:52.377Z,98490.69
2024-03-11T22:55:19.341Z,98498.22
2024-03-11T22:57:46.964Z,98494.72
2024-03-11T23:00:34.153Z,98501.72
2024-03-11T23:03:01.108Z,98494.88
2024-03-11T23:05:28.023Z,98497.53
2024-03-11T23:07:54.901Z,98500.97
2024-03-11T23:10:27.636Z,98499.19
2024-03-11T23:12:55.807Z,98504.28
2024-03-11T23:15:24.102Z,98496.53
2024-03-11T23:17:55.536Z,98505.06
2024-03-11T23:20:24.114Z,98503.47
2024-03-11T23:22:51.761Z,98471.94
2024-03-11T23:25:23.085Z,98513.06
2024-03-11T23:27:58.463Z,98512.13
2024-03-11T23:30:28.874Z,98498.84
2024-03-11T23:32:59.827Z,98509.69
2024-03-11T23:35:29.307Z,98513.25
2024-03-11T23:37:58.735Z,98519.19
2024-03-11T23:40:25.701Z,98518.28
2024-03-11T23:42:53.284Z,98517.38
2024-03-11T23:45:23.657Z,98519.28
2024-03-11T23:47:51.720Z,98523.66
2024-03-11T23:50:21.771Z,98529.69
2024-03-11T23:52:50.192Z,98509.69
2024-03-11T23:55:21.046Z,98533.03
2024-03-11T23:57:48.589Z,98529.69
